Time;durP1;ratioP1;P1;durP2;ratioP2;P2;SDS_P1;SDS_P2;PMS_P1;PMS_P2;Temp;Humidity;BMP_temperature;BMP_pressure;BME280_temperature;BME280_humidity;BME280_pressure;Samples;Min_cycle;Max_cycle;Signal;HPM_P1;HPM_P2
2022/03/31 00:02:07;;;;;;;;;49.00;40.00;;;;;;;;5031659;28;50844;-61
2022/03/31 00:04:33;;;;;;;;;51.00;40.75;;;;;;;;5027519;28;50992;-59
2022/03/31 00:06:58;;;;;;;;;49.00;39.75;;;;;;;;5027967;28;51209;-57
2022/03/31 00:09:23;;;;;;;;;48.00;39.50;;;;;;;;5031797;28;51169;-58
2022/03/31 00:11:48;;;;;;;;;42.00;37.25;;;;;;;;5032170;28;51360;-60
2022/03/31 00:14:13;;;;;;;;;49.75;39.25;;;;;;;;5029606;28;51293;-59
2022/03/31 00:16:39;;;;;;;;;44.25;37.25;;;;;;;;5027585;28;51668;-58
2022/03/31 00:19:04;;;;;;;;;39.50;36.00;;;;;;;;5032592;28;50850;-59
2022/03/31 00:21:29;;;;;;;;;42.00;35.00;;;;;;;;5029605;28;51138;-58
2022/03/31 00:23:54;;;;;;;;;44.00;36.25;;;;;;;;5019203;28;51917;-58
2022/03/31 00:26:20;;;;;;;;;38.75;34.00;;;;;;;;5028023;28;51075;-59
2022/03/31 00:28:45;;;;;;;;;35.75;33.25;;;;;;;;5030978;28;51226;-59
2022/03/31 00:31:10;;;;;;;;;42.25;38.00;;;;;;;;5031371;28;51125;-58
2022/03/31 00:33:35;;;;;;;;;44.75;38.00;;;;;;;;5031062;28;51229;-59
2022/03/31 00:36:01;;;;;;;;;39.50;34.25;;;;;;;;5024052;28;51046;-59
2022/03/31 00:38:26;;;;;;;;;35.50;33.75;;;;;;;;5027489;28;51383;-59
2022/03/31 00:40:51;;;;;;;;;44.00;35.25;;;;;;;;5034222;28;51348;-60
2022/03/31 00:43:16;;;;;;;;;40.75;33.75;;;;;;;;5030903;28;51135;-58
2022/03/31 00:45:48;;;;;;;;;36.00;33.75;;;;;;;;5023173;28;52121;-59
2022/03/31 00:48:15;;;;;;;;;37.50;33.25;;;;;;;;5027072;28;51428;-58
2022/03/31 00:50:40;;;;;;;;;41.50;35.50;;;;;;;;5028243;28;51107;-59
2022/03/31 00:53:05;;;;;;;;;36.75;32.50;;;;;;;;5026304;28;51087;-58
2022/03/31 00:55:31;;;;;;;;;35.75;32.25;;;;;;;;5023359;28;51201;-58
2022/03/31 00:57:56;;;;;;;;;39.50;33.75;;;;;;;;5027831;28;51389;-59
2022/03/31 01:00:22;;;;;;;;;33.00;31.50;;;;;;;;5032091;28;51254;-57
2022/03/31 01:02:47;;;;;;;;;35.50;34.00;;;;;;;;5029308;28;52130;-60
2022/03/31 01:05:14;;;;;;;;;34.75;32.25;;;;;;;;5029160;28;51044;-57
2022/03/31 01:07:40;;;;;;;;;33.25;30.75;;;;;;;;5026645;28;50851;-58
2022/03/31 01:10:06;;;;;;;;;40.75;34.75;;;;;;;;5033389;28;51082;-57
2022/03/31 01:12:31;;;;;;;;;33.25;31.50;;;;;;;;5033134;28;52036;-57
2022/03/31 01:15:07;;;;;;;;;35.00;31.00;;;;;;;;5033140;28;51266;-58
2022/03/31 01:17:33;;;;;;;;;41.75;32.50;;;;;;;;5032170;28;51429;-58
2022/03/31 01:19:59;;;;;;;;;37.25;32.75;;;;;;;;5034168;28;51346;-58
2022/03/31 01:22:25;;;;;;;;;36.25;31.75;;;;;;;;5034756;28;53367;-58
2022/03/31 01:24:50;;;;;;;;;36.25;33.75;;;;;;;;5029706;28;51065;-58
2022/03/31 01:27:16;;;;;;;;;36.75;33.75;;;;;;;;5028468;28;50954;-58
2022/03/31 01:29:41;;;;;;;;;36.75;33.75;;;;;;;;5025876;28;50956;-59
2022/03/31 01:32:07;;;;;;;;;40.75;36.25;;;;;;;;5033301;28;51406;-58
2022/03/31 01:34:32;;;;;;;;;38.75;33.25;;;;;;;;5030126;28;50928;-58
2022/03/31 01:36:57;;;;;;;;;39.00;35.00;;;;;;;;5033900;28;50954;-58
2022/03/31 01:39:22;;;;;;;;;37.25;33.25;;;;;;;;5018730;28;51488;-58
2022/03/31 01:41:47;;;;;;;;;35.75;30.00;;;;;;;;5033650;28;51574;-58
2022/03/31 01:44:13;;;;;;;;;44.00;34.25;;;;;;;;5031920;28;51069;-59
2022/03/31 01:46:38;;;;;;;;;44.75;38.00;;;;;;;;5032503;28;51155;-59
2022/03/31 01:49:03;;;;;;;;;39.00;33.75;;;;;;;;5034810;28;51196;-59
2022/03/31 01:51:28;;;;;;;;;39.50;35.00;;;;;;;;5032864;28;51726;-58
2022/03/31 01:53:53;;;;;;;;;46.00;38.00;;;;;;;;5032936;28;51150;-60
2022/03/31 01:56:19;;;;;;;;;42.00;37.00;;;;;;;;5033806;28;51014;-58
2022/03/31 01:58:44;;;;;;;;;39.75;36.00;;;;;;;;5034162;28;51212;-58
2022/03/31 02:01:09;;;;;;;;;40.50;36.50;;;;;;;;5030665;28;51927;-59
2022/03/31 02:03:34;;;;;;;;;39.50;36.25;;;;;;;;5030492;28;50935;-59
2022/03/31 02:06:00;;;;;;;;;40.25;36.00;;;;;;;;5031268;28;51155;-59
2022/03/31 02:08:25;;;;;;;;;46.50;40.25;;;;;;;;5029529;28;51122;-58
2022/03/31 02:10:50;;;;;;;;;50.75;39.50;;;;;;;;5032974;28;52697;-59
2022/03/31 02:13:15;;;;;;;;;41.25;36.75;;;;;;;;5033270;28;51100;-59
2022/03/31 02:15:41;;;;;;;;;39.00;36.25;;;;;;;;5031200;28;51235;-58
2022/03/31 02:18:07;;;;;;;;;44.25;38.00;;;;;;;;5032310;28;51023;-58
2022/03/31 02:20:32;;;;;;;;;41.75;37.25;;;;;;;;5021112;28;51836;-60
2022/03/31 02:23:00;;;;;;;;;47.50;40.50;;;;;;;;5033841;28;51231;-59
2022/03/31 02:25:25;;;;;;;;;52.75;41.50;;;;;;;;5031629;28;50897;-58
2022/03/31 02:27:51;;;;;;;;;47.75;38.50;;;;;;;;5025965;28;51308;-60
2022/03/31 02:30:16;;;;;;;;;44.75;38.75;;;;;;;;5029917;28;52639;-59
2022/03/31 02:32:42;;;;;;;;;51.25;42.25;;;;;;;;5022595;28;50964;-59
2022/03/31 02:35:08;;;;;;;;;52.75;41.75;;;;;;;;5020672;28;50993;-58
2022/03/31 02:37:34;;;;;;;;;53.25;41.00;;;;;;;;5037881;28;51076;-58
2022/03/31 02:40:00;;;;;;;;;55.25;45.00;;;;;;;;5017077;28;53630;-58
2022/03/31 02:42:25;;;;;;;;;54.25;43.25;;;;;;;;5031442;28;51621;-58
2022/03/31 02:44:50;;;;;;;;;49.25;41.25;;;;;;;;5031821;28;51089;-59
2022/03/31 02:47:15;;;;;;;;;48.25;40.50;;;;;;;;5032820;28;50804;-59
2022/03/31 02:49:41;;;;;;;;;54.25;44.50;;;;;;;;5029623;28;52385;-59
2022/03/31 02:52:06;;;;;;;;;57.00;45.00;;;;;;;;5032115;28;50884;-59
2022/03/31 02:57:16;;;;;;;;;49.50;41.50;;;;;;;;5017152;28;51036;-59
2022/03/31 02:59:41;;;;;;;;;54.75;43.25;;;;;;;;5029342;28;51668;-58
2022/03/31 03:02:06;;;;;;;;;53.00;40.75;;;;;;;;5026364;28;50874;-58
2022/03/31 03:04:32;;;;;;;;;49.25;41.75;;;;;;;;5029141;28;51236;-58
2022/03/31 03:06:57;;;;;;;;;57.25;46.50;;;;;;;;5032755;28;51236;-59
2022/03/31 03:09:22;;;;;;;;;57.75;47.75;;;;;;;;5029039;28;51738;-59
2022/03/31 03:11:48;;;;;;;;;54.25;43.00;;;;;;;;5033104;28;50997;-59
2022/03/31 03:14:14;;;;;;;;;50.50;42.75;;;;;;;;5030426;28;51132;-58
2022/03/31 03:16:39;;;;;;;;;55.75;44.50;;;;;;;;5031430;28;51418;-60
2022/03/31 03:19:04;;;;;;;;;55.75;46.75;;;;;;;;5030302;28;51071;-59
2022/03/31 03:21:30;;;;;;;;;61.00;48.75;;;;;;;;5031755;28;51257;-57
2022/03/31 03:23:55;;;;;;;;;55.00;43.50;;;;;;;;5025352;28;51141;-59
2022/03/31 03:26:21;;;;;;;;;55.75;44.50;;;;;;;;5025824;28;51227;-58
2022/03/31 03:28:46;;;;;;;;;56.00;42.00;;;;;;;;5024702;28;51885;-58
2022/03/31 03:31:12;;;;;;;;;58.00;48.50;;;;;;;;5031754;28;51129;-58
2022/03/31 03:33:38;;;;;;;;;56.00;46.50;;;;;;;;5028312;28;51132;-59
2022/03/31 03:36:04;;;;;;;;;59.50;48.00;;;;;;;;5039208;28;51334;-60
2022/03/31 03:38:31;;;;;;;;;58.25;46.75;;;;;;;;5027894;28;53367;-60
2022/03/31 03:40:56;;;;;;;;;54.50;45.00;;;;;;;;5033144;28;50955;-59
2022/03/31 03:43:21;;;;;;;;;61.00;50.00;;;;;;;;5026800;28;51156;-59
2022/03/31 03:45:47;;;;;;;;;56.25;46.00;;;;;;;;5024449;28;51389;-59
2022/03/31 03:48:12;;;;;;;;;57.50;47.25;;;;;;;;5030100;28;51010;-59
2022/03/31 03:50:38;;;;;;;;;58.25;46.50;;;;;;;;5025742;28;51088;-59
2022/03/31 03:53:04;;;;;;;;;59.00;46.00;;;;;;;;5029990;28;51091;-60
2022/03/31 03:55:35;;;;;;;;;53.25;43.00;;;;;;;;5031524;28;51099;-60
2022/03/31 03:58:01;;;;;;;;;56.50;45.00;;;;;;;;5020386;28;51834;-59
2022/03/31 04:00:27;;;;;;;;;58.50;46.75;;;;;;;;5029345;28;51077;-60
2022/03/31 04:02:53;;;;;;;;;55.00;45.00;;;;;;;;5025551;28;51104;-59
2022/03/31 04:05:19;;;;;;;;;57.00;47.25;;;;;;;;5025484;28;51326;-59
2022/03/31 04:07:44;;;;;;;;;53.00;43.75;;;;;;;;5030666;28;51167;-59
2022/03/31 04:10:12;;;;;;;;;52.00;41.75;;;;;;;;5032437;28;51121;-60
2022/03/31 04:12:38;;;;;;;;;51.50;39.75;;;;;;;;5031380;28;51286;-60
2022/03/31 04:15:04;;;;;;;;;53.25;42.75;;;;;;;;5029076;28;51060;-60
2022/03/31 04:17:30;;;;;;;;;58.75;44.25;;;;;;;;5031350;28;51845;-60
2022/03/31 04:19:55;;;;;;;;;55.00;41.75;;;;;;;;5025772;28;51189;-59
2022/03/31 04:22:21;;;;;;;;;46.25;39.25;;;;;;;;5021597;28;51196;-58
2022/03/31 04:24:47;;;;;;;;;47.25;39.25;;;;;;;;5009091;28;51484;-58
2022/03/31 04:27:12;;;;;;;;;46.25;39.00;;;;;;;;5025357;28;52682;-59
2022/03/31 04:29:37;;;;;;;;;48.75;41.25;;;;;;;;5025227;28;51147;-59
2022/03/31 04:32:03;;;;;;;;;51.25;42.00;;;;;;;;5028893;28;51231;-59
2022/03/31 04:34:28;;;;;;;;;52.00;42.00;;;;;;;;5028821;28;51049;-59
2022/03/31 04:36:54;;;;;;;;;54.25;45.00;;;;;;;;5016443;28;51760;-58
2022/03/31 04:39:19;;;;;;;;;51.50;42.25;;;;;;;;5026157;28;52262;-58
2022/03/31 04:41:45;;;;;;;;;56.25;42.75;;;;;;;;5031415;28;51132;-58
2022/03/31 04:44:12;;;;;;;;;47.25;41.50;;;;;;;;5027390;28;51115;-58
2022/03/31 04:46:38;;;;;;;;;51.00;41.50;;;;;;;;5029196;28;52244;-59
2022/03/31 04:49:03;;;;;;;;;55.25;46.00;;;;;;;;5019586;28;50998;-59
2022/03/31 04:51:30;;;;;;;;;60.00;45.75;;;;;;;;5029444;28;51142;-58
2022/03/31 04:53:55;;;;;;;;;56.25;42.75;;;;;;;;5032486;28;51324;-59
2022/03/31 04:56:21;;;;;;;;;56.25;45.50;;;;;;;;5024717;28;52156;-59
2022/03/31 04:58:46;;;;;;;;;53.50;44.25;;;;;;;;5027222;28;51170;-58
2022/03/31 05:01:11;;;;;;;;;51.50;43.00;;;;;;;;5021258;28;52509;-58
2022/03/31 05:03:39;;;;;;;;;54.50;42.50;;;;;;;;5030206;28;51340;-57
2022/03/31 05:06:06;;;;;;;;;58.25;47.00;;;;;;;;5027822;28;51132;-58
2022/03/31 05:08:31;;;;;;;;;56.50;45.75;;;;;;;;5030412;28;51045;-59
2022/03/31 05:10:56;;;;;;;;;52.00;42.75;;;;;;;;5026712;28;51114;-58
2022/03/31 05:13:22;;;;;;;;;51.75;43.75;;;;;;;;5026494;28;51025;-58
2022/03/31 05:15:47;;;;;;;;;60.00;48.75;;;;;;;;5028472;28;51717;-58
2022/03/31 05:18:13;;;;;;;;;59.25;46.50;;;;;;;;5026948;28;51253;-60
2022/03/31 05:20:39;;;;;;;;;54.50;44.50;;;;;;;;5023295;28;51191;-59
2022/03/31 05:23:04;;;;;;;;;61.00;51.00;;;;;;;;5030734;28;51083;-59
2022/03/31 05:25:29;;;;;;;;;61.25;48.50;;;;;;;;5031763;28;51174;-59
2022/03/31 05:27:57;;;;;;;;;56.25;47.75;;;;;;;;5030621;28;51005;-59
2022/03/31 05:30:22;;;;;;;;;54.00;43.75;;;;;;;;5031162;28;50926;-59
2022/03/31 05:32:48;;;;;;;;;54.25;44.00;;;;;;;;5031333;28;50898;-60
2022/03/31 05:35:14;;;;;;;;;61.25;47.00;;;;;;;;5017547;28;51921;-59
2022/03/31 05:37:39;;;;;;;;;59.75;48.00;;;;;;;;5031087;28;51003;-58
2022/03/31 05:40:06;;;;;;;;;62.00;46.00;;;;;;;;5032906;28;51082;-59
2022/03/31 05:42:32;;;;;;;;;56.50;43.25;;;;;;;;5035172;28;51139;-58
2022/03/31 05:45:02;;;;;;;;;61.25;50.00;;;;;;;;5031511;28;52069;-59
2022/03/31 05:47:27;;;;;;;;;62.75;47.00;;;;;;;;5014753;28;51032;-58
2022/03/31 05:49:53;;;;;;;;;52.00;42.75;;;;;;;;5022018;28;51210;-57
2022/03/31 05:52:18;;;;;;;;;59.75;47.50;;;;;;;;5031750;28;51322;-57
2022/03/31 05:54:44;;;;;;;;;62.75;49.75;;;;;;;;5028521;28;51785;-59
2022/03/31 05:57:09;;;;;;;;;66.75;49.75;;;;;;;;5034062;28;51363;-58
2022/03/31 05:59:34;;;;;;;;;61.50;51.00;;;;;;;;5033915;28;51096;-59
2022/03/31 06:01:59;;;;;;;;;67.00;53.00;;;;;;;;5028194;28;51391;-60
2022/03/31 06:04:25;;;;;;;;;64.50;51.75;;;;;;;;5034600;28;51851;-58
2022/03/31 06:06:50;;;;;;;;;66.50;53.00;;;;;;;;5032033;28;51097;-60
2022/03/31 06:09:16;;;;;;;;;69.00;54.00;;;;;;;;5034239;28;51271;-59
2022/03/31 06:11:42;;;;;;;;;68.50;53.50;;;;;;;;5033056;28;51070;-59
2022/03/31 06:14:07;;;;;;;;;68.25;52.50;;;;;;;;5019854;28;51859;-58
2022/03/31 06:16:32;;;;;;;;;72.50;55.75;;;;;;;;5024078;28;51073;-58
2022/03/31 06:18:58;;;;;;;;;71.00;53.00;;;;;;;;5024872;28;52233;-59
2022/03/31 06:21:23;;;;;;;;;69.75;54.75;;;;;;;;5027979;28;51389;-60
2022/03/31 06:23:48;;;;;;;;;73.25;53.25;;;;;;;;5021218;28;51748;-60
2022/03/31 06:26:14;;;;;;;;;64.50;53.25;;;;;;;;5010716;28;51165;-60
2022/03/31 06:28:40;;;;;;;;;71.00;54.00;;;;;;;;5011957;28;51230;-59
2022/03/31 06:31:05;;;;;;;;;70.75;55.50;;;;;;;;5020290;28;51172;-60
2022/03/31 06:33:30;;;;;;;;;67.00;54.25;;;;;;;;5024321;28;51865;-59
2022/03/31 06:35:56;;;;;;;;;73.25;57.50;;;;;;;;5012163;28;51266;-59
2022/03/31 06:38:21;;;;;;;;;75.00;57.25;;;;;;;;5026716;28;50935;-60
2022/03/31 06:41:06;;;;;;;;;69.25;52.25;;;;;;;;5029853;28;52439;-60
2022/03/31 06:43:32;;;;;;;;;68.75;53.00;;;;;;;;5032588;28;53411;-61
2022/03/31 06:45:57;;;;;;;;;69.75;54.50;;;;;;;;5026463;28;51163;-60
2022/03/31 06:48:22;;;;;;;;;64.00;51.50;;;;;;;;5018552;28;51116;-59
2022/03/31 06:50:47;;;;;;;;;66.00;53.50;;;;;;;;5024952;28;51251;-59
2022/03/31 06:53:13;;;;;;;;;67.25;53.50;;;;;;;;5023042;28;51276;-61
2022/03/31 06:55:38;;;;;;;;;73.50;54.75;;;;;;;;5295789;22;51418;-59
2022/03/31 06:58:03;;;;;;;;;65.75;52.50;;;;;;;;5004228;28;51272;-58
2022/03/31 07:00:29;;;;;;;;;66.50;52.00;;;;;;;;5007513;28;51131;-58
2022/03/31 07:02:54;;;;;;;;;66.25;52.75;;;;;;;;5011061;28;53750;-60
2022/03/31 07:05:20;;;;;;;;;64.75;53.25;;;;;;;;5013313;28;51032;-59
2022/03/31 07:07:45;;;;;;;;;66.25;53.25;;;;;;;;5013826;28;51575;-62
2022/03/31 07:10:11;;;;;;;;;69.50;53.50;;;;;;;;5009010;28;51182;-59
2022/03/31 07:12:39;;;;;;;;;62.25;49.75;;;;;;;;5000594;28;51103;-60
2022/03/31 07:15:04;;;;;;;;;65.00;52.00;;;;;;;;5004616;28;50944;-60
2022/03/31 07:17:30;;;;;;;;;63.00;48.50;;;;;;;;4998607;28;51126;-60
2022/03/31 07:19:55;;;;;;;;;63.50;47.00;;;;;;;;5007865;28;51135;-60
2022/03/31 07:22:20;;;;;;;;;66.75;50.25;;;;;;;;5012163;28;51181;-59
2022/03/31 07:24:45;;;;;;;;;60.00;49.50;;;;;;;;5008849;28;51041;-60
2022/03/31 07:27:11;;;;;;;;;57.50;45.00;;;;;;;;5010552;28;50830;-60
2022/03/31 07:29:36;;;;;;;;;61.75;47.75;;;;;;;;5004925;28;51068;-59
2022/03/31 07:32:01;;;;;;;;;58.25;46.50;;;;;;;;4993736;28;51907;-60
2022/03/31 07:34:26;;;;;;;;;58.75;47.00;;;;;;;;4994289;28;51033;-63
2022/03/31 07:36:53;;;;;;;;;59.25;47.75;;;;;;;;5004875;28;51227;-59
2022/03/31 07:39:19;;;;;;;;;56.50;45.25;;;;;;;;5003054;28;51019;-58
2022/03/31 07:41:44;;;;;;;;;62.50;49.00;;;;;;;;4996812;28;51139;-59
2022/03/31 07:44:09;;;;;;;;;57.25;46.25;;;;;;;;4993039;28;51104;-61
2022/03/31 07:46:35;;;;;;;;;56.75;46.75;;;;;;;;5004599;28;51115;-58
2022/03/31 07:49:00;;;;;;;;;60.25;47.25;;;;;;;;5002776;28;50952;-59
2022/03/31 07:51:26;;;;;;;;;64.25;51.75;;;;;;;;5003743;28;51945;-60
2022/03/31 07:53:52;;;;;;;;;63.00;50.00;;;;;;;;4995668;28;50848;-59
2022/03/31 07:56:17;;;;;;;;;64.50;49.75;;;;;;;;5009577;28;50841;-59
2022/03/31 07:58:42;;;;;;;;;66.00;51.50;;;;;;;;5009623;28;51231;-60
2022/03/31 08:01:07;;;;;;;;;62.00;49.75;;;;;;;;5005927;28;52577;-60
2022/03/31 08:03:33;;;;;;;;;70.25;51.00;;;;;;;;5009925;28;51032;-60
2022/03/31 08:05:59;;;;;;;;;67.50;52.25;;;;;;;;5010327;28;51005;-57
2022/03/31 08:08:24;;;;;;;;;62.50;49.50;;;;;;;;5003444;28;51090;-58
2022/03/31 08:10:50;;;;;;;;;74.25;54.00;;;;;;;;4996058;28;51186;-59
2022/03/31 08:13:23;;;;;;;;;60.25;49.75;;;;;;;;4995224;28;51101;-59
2022/03/31 08:15:48;;;;;;;;;60.25;47.25;;;;;;;;4993806;28;50932;-59
2022/03/31 08:18:14;;;;;;;;;58.75;48.25;;;;;;;;5004053;28;51135;-60
2022/03/31 08:20:39;;;;;;;;;43.75;38.00;;;;;;;;5007608;28;51308;-58
2022/03/31 08:23:05;;;;;;;;;39.00;33.75;;;;;;;;5011165;28;51234;-58
2022/03/31 08:25:30;;;;;;;;;34.00;28.00;;;;;;;;5001584;28;51262;-60
2022/03/31 08:27:55;;;;;;;;;28.75;27.00;;;;;;;;5004120;28;50932;-59
2022/03/31 08:30:23;;;;;;;;;25.75;25.00;;;;;;;;4997596;28;50913;-60
2022/03/31 08:32:48;;;;;;;;;27.25;26.50;;;;;;;;5002763;28;51000;-60
2022/03/31 08:35:15;;;;;;;;;27.00;25.25;;;;;;;;5011986;28;51059;-59
2022/03/31 08:37:41;;;;;;;;;23.00;22.50;;;;;;;;5011364;28;51242;-59
2022/03/31 08:40:07;;;;;;;;;26.00;24.75;;;;;;;;4999056;28;52836;-58
2022/03/31 08:42:32;;;;;;;;;25.50;24.25;;;;;;;;5001877;28;51165;-59
2022/03/31 08:44:58;;;;;;;;;28.25;25.75;;;;;;;;5004316;28;52660;-59
2022/03/31 08:47:26;;;;;;;;;22.25;19.75;;;;;;;;4992254;28;50869;-59
2022/03/31 08:49:52;;;;;;;;;20.00;18.75;;;;;;;;5002473;28;52762;-59
2022/03/31 08:52:18;;;;;;;;;13.25;12.75;;;;;;;;4995658;28;51128;-59
2022/03/31 08:54:43;;;;;;;;;14.25;13.75;;;;;;;;5005408;28;51260;-59
2022/03/31 08:57:08;;;;;;;;;13.00;12.25;;;;;;;;4999944;28;51323;-59
2022/03/31 08:59:33;;;;;;;;;11.50;11.00;;;;;;;;5011570;28;51353;-61
2022/03/31 09:01:59;;;;;;;;;10.75;10.25;;;;;;;;5019515;28;51052;-60
2022/03/31 09:04:25;;;;;;;;;13.50;12.75;;;;;;;;5005536;28;50937;-59
2022/03/31 09:07:03;;;;;;;;;13.25;12.25;;;;;;;;5008940;28;51092;-58
2022/03/31 09:09:29;;;;;;;;;13.75;13.75;;;;;;;;4992378;28;52019;-58
2022/03/31 09:11:54;;;;;;;;;12.50;12.25;;;;;;;;5006077;28;51033;-60
2022/03/31 09:14:29;;;;;;;;;14.00;12.25;;;;;;;;5007030;28;50927;-58
2022/03/31 09:16:54;;;;;;;;;14.00;13.00;;;;;;;;5007967;28;50957;-60
2022/03/31 09:19:20;;;;;;;;;12.50;12.00;;;;;;;;5015366;28;52795;-60
2022/03/31 09:21:52;;;;;;;;;16.00;15.00;;;;;;;;5015327;28;50856;-60
2022/03/31 09:24:18;;;;;;;;;11.25;10.50;;;;;;;;5007191;28;51349;-59
2022/03/31 09:26:44;;;;;;;;;16.25;15.00;;;;;;;;4995756;28;50918;-59
2022/03/31 09:29:15;;;;;;;;;15.75;14.00;;;;;;;;4995865;28;51930;-63
2022/03/31 09:31:40;;;;;;;;;11.50;11.50;;;;;;;;4995799;28;51150;-61
2022/03/31 09:34:05;;;;;;;;;16.25;13.75;;;;;;;;4995755;28;51040;-60
2022/03/31 09:36:31;;;;;;;;;17.00;13.00;;;;;;;;5010969;28;51060;-60
2022/03/31 09:39:01;;;;;;;;;13.00;12.25;;;;;;;;5015564;28;51787;-59
2022/03/31 09:41:27;;;;;;;;;11.50;10.75;;;;;;;;5015299;28;50913;-59
2022/03/31 09:43:54;;;;;;;;;11.00;10.75;;;;;;;;5015256;28;51094;-60
2022/03/31 09:46:27;;;;;;;;;10.00;10.00;;;;;;;;5014685;28;50934;-58
2022/03/31 09:48:53;;;;;;;;;8.00;8.00;;;;;;;;4994461;28;51041;-59
2022/03/31 09:51:20;;;;;;;;;12.75;12.75;;;;;;;;4994697;28;51028;-58
2022/03/31 09:53:46;;;;;;;;;10.00;9.00;;;;;;;;4997281;28;51039;-58
2022/03/31 09:56:12;;;;;;;;;12.50;10.50;;;;;;;;4999707;28;51065;-59
2022/03/31 09:58:39;;;;;;;;;8.25;8.25;;;;;;;;5000196;28;52172;-59
2022/03/31 10:01:07;;;;;;;;;10.50;9.75;;;;;;;;5006687;28;51036;-58
2022/03/31 10:03:33;;;;;;;;;10.75;10.50;;;;;;;;4995212;28;51151;-59
2022/03/31 10:06:00;;;;;;;;;7.75;7.00;;;;;;;;4986169;28;51018;-60
2022/03/31 10:08:26;;;;;;;;;8.00;8.00;;;;;;;;4994686;28;51974;-60
2022/03/31 10:10:51;;;;;;;;;8.25;8.00;;;;;;;;4993447;28;51009;-60
2022/03/31 10:13:18;;;;;;;;;12.00;11.00;;;;;;;;4994618;28;51117;-58
2022/03/31 10:15:46;;;;;;;;;12.00;10.75;;;;;;;;4994899;28;51239;-59
2022/03/31 10:18:12;;;;;;;;;9.75;9.25;;;;;;;;4994170;28;51980;-58
2022/03/31 10:20:37;;;;;;;;;11.75;11.50;;;;;;;;4994175;28;50969;-58
2022/03/31 10:25:48;;;;;;;;;13.25;11.25;;;;;;;;4993595;28;51049;-58
2022/03/31 10:28:14;;;;;;;;;12.00;12.00;;;;;;;;4995234;28;51711;-59
2022/03/31 10:30:40;;;;;;;;;10.50;10.50;;;;;;;;4994179;28;51043;-59
2022/03/31 10:33:08;;;;;;;;;11.00;11.00;;;;;;;;4994548;28;51211;-59
2022/03/31 10:35:40;;;;;;;;;11.25;11.25;;;;;;;;4994127;28;50991;-60
2022/03/31 10:38:16;;;;;;;;;11.00;11.00;;;;;;;;4992530;28;52994;-59
2022/03/31 10:40:42;;;;;;;;;12.00;10.00;;;;;;;;4994062;28;50987;-59
2022/03/31 10:43:17;;;;;;;;;7.00;7.00;;;;;;;;4994022;28;51030;-59
2022/03/31 10:45:43;;;;;;;;;8.75;8.25;;;;;;;;4994843;28;51023;-62
2022/03/31 10:48:19;;;;;;;;;12.00;12.00;;;;;;;;4997714;28;51775;-59
2022/03/31 10:50:45;;;;;;;;;6.50;6.50;;;;;;;;5006385;28;50972;-60
2022/03/31 10:53:10;;;;;;;;;7.25;7.00;;;;;;;;4993628;28;51060;-59
2022/03/31 10:55:35;;;;;;;;;6.50;4.25;;;;;;;;5012688;28;50999;-60
2022/03/31 10:58:01;;;;;;;;;5.25;3.00;;;;;;;;4996019;28;51592;-61
2022/03/31 11:00:26;;;;;;;;;7.50;7.25;;;;;;;;5002756;28;50933;-61
2022/03/31 11:02:54;;;;;;;;;6.25;6.00;;;;;;;;4994837;28;50890;-60
2022/03/31 11:05:22;;;;;;;;;8.00;7.00;;;;;;;;4993566;28;51947;-60
2022/03/31 11:07:48;;;;;;;;;5.00;4.00;;;;;;;;4993009;28;50979;-60
2022/03/31 11:10:13;;;;;;;;;7.00;6.00;;;;;;;;4993133;28;50918;-59
2022/03/31 11:12:40;;;;;;;;;7.00;6.50;;;;;;;;4993457;28;50919;-59
2022/03/31 11:15:05;;;;;;;;;3.00;3.00;;;;;;;;4993777;28;50920;-59
2022/03/31 11:17:31;;;;;;;;;6.50;5.00;;;;;;;;4992891;28;51936;-60
2022/03/31 11:19:57;;;;;;;;;7.75;6.25;;;;;;;;4991568;28;51064;-59
2022/03/31 11:22:23;;;;;;;;;3.50;3.00;;;;;;;;4992980;28;51049;-60
2022/03/31 11:24:50;;;;;;;;;6.50;6.00;;;;;;;;4993380;28;51178;-59
2022/03/31 11:27:16;;;;;;;;;12.00;11.00;;;;;;;;4993033;28;52324;-59
2022/03/31 11:29:41;;;;;;;;;7.00;6.75;;;;;;;;4993288;28;51024;-58
2022/03/31 11:32:06;;;;;;;;;12.25;11.75;;;;;;;;5010778;28;50970;-60
2022/03/31 11:34:32;;;;;;;;;12.75;9.25;;;;;;;;5013096;28;51171;-59
2022/03/31 11:36:57;;;;;;;;;7.00;7.00;;;;;;;;5006253;28;52712;-59
2022/03/31 11:39:28;;;;;;;;;4.00;4.00;;;;;;;;4993100;28;51029;-60
2022/03/31 11:41:54;;;;;;;;;6.25;6.25;;;;;;;;4992803;28;51140;-59
2022/03/31 11:44:20;;;;;;;;;9.00;6.00;;;;;;;;4997648;28;51358;-59
2022/03/31 11:46:49;;;;;;;;;7.25;7.25;;;;;;;;4994575;28;51104;-60
2022/03/31 11:49:24;;;;;;;;;9.00;8.00;;;;;;;;4992738;28;50917;-60
2022/03/31 11:51:54;;;;;;;;;11.00;9.00;;;;;;;;4992594;28;51160;-59
2022/03/31 11:54:20;;;;;;;;;10.00;9.25;;;;;;;;5004511;28;51390;-60
2022/03/31 11:56:46;;;;;;;;;9.25;8.00;;;;;;;;5012064;28;50999;-59
2022/03/31 11:59:14;;;;;;;;;8.25;7.50;;;;;;;;5011207;28;51130;-60
2022/03/31 12:01:43;;;;;;;;;6.50;6.50;;;;;;;;5013809;28;51218;-59
2022/03/31 12:04:21;;;;;;;;;8.50;7.50;;;;;;;;5018169;28;51262;-59
2022/03/31 12:06:47;;;;;;;;;8.00;7.75;;;;;;;;5001805;28;51873;-59
2022/03/31 12:09:13;;;;;;;;;7.75;7.00;;;;;;;;4993958;28;50920;-59
2022/03/31 12:11:38;;;;;;;;;6.00;6.00;;;;;;;;5015682;28;51522;-58
2022/03/31 12:14:03;;;;;;;;;8.25;6.50;;;;;;;;4994741;28;51131;-59
2022/03/31 12:16:29;;;;;;;;;8.50;8.00;;;;;;;;5002921;28;51019;-58
2022/03/31 12:18:55;;;;;;;;;8.00;7.00;;;;;;;;5016961;28;50847;-59
2022/03/31 12:21:21;;;;;;;;;13.00;12.25;;;;;;;;4995392;28;50880;-59
2022/03/31 12:23:47;;;;;;;;;7.50;7.00;;;;;;;;4992373;28;51307;-58
2022/03/31 12:26:19;;;;;;;;;9.25;8.00;;;;;;;;4992071;28;51873;-59
2022/03/31 12:28:45;;;;;;;;;9.00;7.75;;;;;;;;4992215;28;50886;-59
2022/03/31 12:31:23;;;;;;;;;8.00;7.25;;;;;;;;4992176;28;50961;-58
2022/03/31 12:33:53;;;;;;;;;0.00;0.00;;;;;;;;4992723;28;51060;-60
2022/03/31 12:36:28;;;;;;;;;8.00;7.00;;;;;;;;4991338;28;51781;-58
2022/03/31 12:38:55;;;;;;;;;8.75;7.25;;;;;;;;4992204;28;50833;-59
2022/03/31 12:41:20;;;;;;;;;9.00;8.00;;;;;;;;4992276;28;50986;-60
2022/03/31 12:44:00;;;;;;;;;9.00;9.00;;;;;;;;5003573;28;50930;-59
2022/03/31 12:46:28;;;;;;;;;7.75;7.50;;;;;;;;4991605;28;51829;-58
2022/03/31 12:49:08;;;;;;;;;9.00;7.75;;;;;;;;4989587;28;50949;-60
2022/03/31 12:51:47;;;;;;;;;5.25;5.25;;;;;;;;4991788;28;51023;-60
2022/03/31 12:54:18;;;;;;;;;9.25;8.50;;;;;;;;5002759;28;50901;-59
2022/03/31 12:56:45;;;;;;;;;11.25;11.25;;;;;;;;5004565;28;52300;-60
2022/03/31 12:59:18;;;;;;;;;5.25;5.25;;;;;;;;5003341;28;51164;-58
2022/03/31 13:01:55;;;;;;;;;8.00;8.00;;;;;;;;5004412;28;51049;-59
2022/03/31 13:04:21;;;;;;;;;8.00;7.00;;;;;;;;4991665;28;51143;-59
2022/03/31 13:06:46;;;;;;;;;7.75;7.00;;;;;;;;4991170;28;51157;-58
2022/03/31 13:09:11;;;;;;;;;7.25;6.00;;;;;;;;4991594;28;51076;-60
2022/03/31 13:11:36;;;;;;;;;5.75;4.75;;;;;;;;4991915;28;51100;-58
2022/03/31 13:14:02;;;;;;;;;7.75;7.75;;;;;;;;4991911;28;50846;-59
2022/03/31 13:16:28;;;;;;;;;10.00;9.75;;;;;;;;4991456;28;52230;-59
2022/03/31 13:18:53;;;;;;;;;7.25;6.50;;;;;;;;4991729;28;51188;-59
2022/03/31 13:21:19;;;;;;;;;10.00;9.75;;;;;;;;4991764;28;51349;-58
2022/03/31 13:23:44;;;;;;;;;9.50;8.50;;;;;;;;4992198;28;50990;-59
2022/03/31 13:26:10;;;;;;;;;6.50;6.00;;;;;;;;4991537;28;51783;-59
2022/03/31 13:28:36;;;;;;;;;8.50;8.50;;;;;;;;4991600;28;51096;-60
2022/03/31 13:31:01;;;;;;;;;9.00;9.00;;;;;;;;4996794;28;50990;-59
2022/03/31 13:33:27;;;;;;;;;8.00;7.75;;;;;;;;4997935;28;51123;-59
2022/03/31 13:35:52;;;;;;;;;9.75;9.00;;;;;;;;4991009;28;51402;-59
2022/03/31 13:38:18;;;;;;;;;8.25;8.00;;;;;;;;4991194;28;50955;-59
2022/03/31 13:40:44;;;;;;;;;9.75;8.75;;;;;;;;4991724;28;50945;-59
2022/03/31 13:43:09;;;;;;;;;9.00;8.75;;;;;;;;4997767;28;50906;-59
2022/03/31 13:45:35;;;;;;;;;8.50;8.00;;;;;;;;4991380;28;52809;-58
2022/03/31 13:48:00;;;;;;;;;7.75;7.00;;;;;;;;4991501;28;50981;-59
2022/03/31 13:50:26;;;;;;;;;7.50;6.25;;;;;;;;4991356;28;51057;-59
2022/03/31 13:55:35;;;;;;;;;9.75;8.50;;;;;;;;5005787;28;50936;-60
2022/03/31 14:03:28;;;;;;;;;6.75;5.00;;;;;;;;4994852;28;51008;-59
2022/03/31 14:05:53;;;;;;;;;9.00;8.00;;;;;;;;4997692;28;52621;-59
2022/03/31 14:08:19;;;;;;;;;8.00;8.00;;;;;;;;4994421;28;50937;-59
2022/03/31 14:10:44;;;;;;;;;8.50;7.25;;;;;;;;4994422;28;51192;-59
2022/03/31 14:13:09;;;;;;;;;8.50;8.00;;;;;;;;4994448;28;51283;-60
2022/03/31 14:15:37;;;;;;;;;5.75;4.50;;;;;;;;4992828;28;53925;-64
2022/03/31 14:18:04;;;;;;;;;4.50;4.25;;;;;;;;4994958;28;50846;-58
2022/03/31 14:20:30;;;;;;;;;4.00;4.00;;;;;;;;4993736;28;50915;-60
2022/03/31 14:22:56;;;;;;;;;4.75;4.00;;;;;;;;4994696;28;50891;-59
2022/03/31 14:25:21;;;;;;;;;2.75;2.75;;;;;;;;4994068;28;51569;-58
2022/03/31 14:27:46;;;;;;;;;3.00;3.00;;;;;;;;4993666;28;51203;-60
2022/03/31 14:30:11;;;;;;;;;3.75;3.50;;;;;;;;4993951;28;51068;-59
2022/03/31 14:32:38;;;;;;;;;6.50;4.00;;;;;;;;4993447;28;51048;-59